createdAt,value
2022-11-03T00:01:37.816Z,61.63
2022-11-03T00:04:07.444Z,65.13
2022-11-03T00:06:36.226Z,76.60
2022-11-03T00:09:07.222Z,72.73
2022-11-03T00:11:38.106Z,72.97
2022-11-03T00:14:07.553Z,66.60
2022-11-03T00:16:36.146Z,66.47
2022-11-03T00:19:04.765Z,63.53
2022-11-03T00:21:33.453Z,65.47
2022-11-03T00:24:02.650Z,63.07
2022-11-03T00:26:32.419Z,64.97
2022-11-03T00:29:07.104Z,67.07
2022-11-03T00:31:37.318Z,64.63
2022-11-03T00:34:07.187Z,80.23
2022-11-03T00:36:37.942Z,66.80
2022-11-03T00:39:07.027Z,68.40
2022-11-03T00:41:35.400Z,68.83
2022-11-03T00:44:05.440Z,65.20
2022-11-03T00:46:35.645Z,66.10
2022-11-03T00:49:05.007Z,64.47
2022-11-03T00:51:34.545Z,66.23
2022-11-03T00:54:04.742Z,70.70
2022-11-03T00:56:34.356Z,73.60
2022-11-03T00:59:06.063Z,72.13
2022-11-03T01:01:40.549Z,66.20
2022-11-03T01:04:41.590Z,76.73
2022-11-03T01:07:10.011Z,75.03
2022-11-03T01:09:39.962Z,68.73
2022-11-03T01:12:11.127Z,73.30
2022-11-03T01:14:43.370Z,67.07
2022-11-03T01:17:13.664Z,76.53
2022-11-03T01:19:42.065Z,74.90
2022-11-03T01:22:11.428Z,71.20
2022-11-03T01:24:41.361Z,66.10
2022-11-03T01:27:10.654Z,69.40
2022-11-03T01:29:40.562Z,72.40
2022-11-03T01:32:09.482Z,75.97
2022-11-03T01:34:38.286Z,77.63
2022-11-03T01:37:06.891Z,69.87
2022-11-03T01:39:35.570Z,72.33
2022-11-03T01:42:04.263Z,80.97
2022-11-03T01:44:37.949Z,75.20
2022-11-03T01:47:28.635Z,72.23
2022-11-03T01:50:01.541Z,69.97
2022-11-03T01:52:34.085Z,79.03
2022-11-03T01:55:05.910Z,75.43
2022-11-03T01:57:38.455Z,73.80
2022-11-03T02:00:08.524Z,68.90
2022-11-03T02:02:44.829Z,73.43
2022-11-03T02:05:16.541Z,76.33
2022-11-03T02:07:51.066Z,69.83
2022-11-03T02:10:19.755Z,64.93
2022-11-03T02:12:49.390Z,66.40
2022-11-03T02:15:21.576Z,82.43
2022-11-03T02:17:53.499Z,75.43
2022-11-03T02:20:24.649Z,65.20
2022-11-03T02:23:16.614Z,71.13
2022-11-03T02:25:48.565Z,63.03
2022-11-03T02:28:19.799Z,70.37
2022-11-03T02:31:08.486Z,70.60
2022-11-03T02:33:48.850Z,77.30
2022-11-03T02:36:21.753Z,68.10
2022-11-03T02:38:57.543Z,68.93
2022-11-03T02:41:29.634Z,68.67
2022-11-03T02:43:58.848Z,75.83
2022-11-03T02:46:29.130Z,76.70
2022-11-03T02:48:57.761Z,67.17
2022-11-03T02:51:26.215Z,80.07
2022-11-03T02:54:03.857Z,71.90
2022-11-03T02:56:39.732Z,88.37
2022-11-03T02:59:12.516Z,73.90
2022-11-03T03:01:47.994Z,68.17
2022-11-03T03:04:21.626Z,73.77
2022-11-03T03:06:54.370Z,74.33
2022-11-03T03:09:26.317Z,78.63
2022-11-03T03:11:59.650Z,73.87
2022-11-03T03:14:32.891Z,72.87
2022-11-03T03:17:04.441Z,85.73
2022-11-03T03:19:45.245Z,91.17
2022-11-03T03:22:18.776Z,85.27
2022-11-03T03:24:52.786Z,96.87
2022-11-03T03:27:27.446Z,85.50
2022-11-03T03:30:00.318Z,77.97
2022-11-03T03:32:31.614Z,86.80
2022-11-03T03:35:01.714Z,97.27
2022-11-03T03:37:32.094Z,82.47
2022-11-03T03:40:06.169Z,87.03
2022-11-03T03:42:38.020Z,87.20
2022-11-03T03:45:09.628Z,80.43
2022-11-03T03:47:38.445Z,97.87
2022-11-03T03:50:07.917Z,93.93
2022-11-03T03:52:36.856Z,89.53
2022-11-03T03:55:08.975Z,89.77
2022-11-03T03:57:38.808Z,84.53
2022-11-03T04:00:09.540Z,86.87
2022-11-03T04:02:40.879Z,96.37
2022-11-03T04:05:09.450Z,86.80
2022-11-03T04:07:49.661Z,82.83
2022-11-03T04:10:19.063Z,95.20
2022-11-03T04:13:06.950Z,84.23
2022-11-03T04:15:52.828Z,86.03
2022-11-03T04:18:40.265Z,80.77
2022-11-03T04:21:30.884Z,82.20
2022-11-03T04:24:00.317Z,87.87
2022-11-03T04:26:29.675Z,97.33
2022-11-03T04:29:00.091Z,85.83
2022-11-03T04:31:30.243Z,91.23
2022-11-03T04:33:59.170Z,95.20
2022-11-03T04:36:27.513Z,82.87
2022-11-03T04:38:55.963Z,92.13
2022-11-03T04:41:26.739Z,90.23
2022-11-03T04:43:55.551Z,81.40
2022-11-03T04:46:28.447Z,76.40
2022-11-03T04:48:59.905Z,88.23
2022-11-03T04:51:30.835Z,87.13
2022-11-03T04:54:04.068Z,83.77
2022-11-03T04:56:33.765Z,84.33
2022-11-03T04:59:02.171Z,96.33
2022-11-03T05:01:32.254Z,86.57
2022-11-03T05:04:00.798Z,79.07
2022-11-03T05:06:30.949Z,86.17
2022-11-03T05:09:01.982Z,97.53
2022-11-03T05:11:33.324Z,95.77
2022-11-03T05:14:04.125Z,78.07
2022-11-03T05:16:34.991Z,80.70
2022-11-03T05:19:03.827Z,79.60
2022-11-03T05:21:32.380Z,82.77
2022-11-03T05:24:04.546Z,87.37
2022-11-03T05:26:36.220Z,85.33
2022-11-03T05:29:10.725Z,91.27
2022-11-03T05:31:43.612Z,95.13
2022-11-03T05:34:33.675Z,82.57
2022-11-03T05:37:20.641Z,81.67
2022-11-03T05:39:52.921Z,77.80
2022-11-03T05:42:30.977Z,80.10
2022-11-03T05:45:00.476Z,75.67
2022-11-03T05:47:34.791Z,76.73
2022-11-03T05:50:15.487Z,73.07
2022-11-03T05:52:46.146Z,85.37
2022-11-03T05:55:27.974Z,92.07
2022-11-03T05:57:58.704Z,81.23
2022-11-03T06:00:30.360Z,84.17
2022-11-03T06:03:00.915Z,98.63
2022-11-03T06:05:29.801Z,82.70
2022-11-03T06:08:01.857Z,87.20
2022-11-03T06:10:32.906Z,89.20
2022-11-03T06:13:05.951Z,84.50
2022-11-03T06:15:37.114Z,82.40
2022-11-03T06:18:16.109Z,99.00
2022-11-03T06:20:52.284Z,92.20
2022-11-03T06:23:21.879Z,95.10
2022-11-03T06:25:51.202Z,87.30
2022-11-03T06:28:22.614Z,87.10
2022-11-03T06:30:52.168Z,95.43
2022-11-03T06:33:26.882Z,100.00
2022-11-03T06:35:57.859Z,99.30
2022-11-03T06:38:29.698Z,94.70
2022-11-03T06:40:59.310Z,91.23
2022-11-03T06:43:40.827Z,94.10
2022-11-03T06:46:15.378Z,95.60
2022-11-03T06:48:46.252Z,95.37
2022-11-03T06:51:19.790Z,107.90
2022-11-03T06:53:49.097Z,87.07
2022-11-03T06:56:21.269Z,97.47
2022-11-03T06:58:51.080Z,101.00
2022-11-03T07:01:23.236Z,103.00
2022-11-03T07:03:57.809Z,107.03
2022-11-03T07:06:32.484Z,105.37
2022-11-03T07:09:02.615Z,99.90
2022-11-03T07:11:33.055Z,110.10
2022-11-03T07:14:11.425Z,100.13
2022-11-03T07:16:44.862Z,97.33
2022-11-03T07:19:19.807Z,106.03
2022-11-03T07:21:50.255Z,110.77
2022-11-03T07:24:23.270Z,98.97
2022-11-03T07:26:57.819Z,105.90
2022-11-03T07:29:29.985Z,114.93
2022-11-03T07:32:00.607Z,117.03
2022-11-03T07:34:34.546Z,114.63
2022-11-03T07:37:03.114Z,116.60
2022-11-03T07:39:37.111Z,128.30
2022-11-03T07:42:14.870Z,124.73
2022-11-03T07:44:43.214Z,132.53
2022-11-03T07:47:14.999Z,118.30
2022-11-03T07:49:45.104Z,119.17
2022-11-03T07:52:17.431Z,124.00
2022-11-03T07:54:45.904Z,137.77
2022-11-03T07:57:20.230Z,130.00
2022-11-03T07:59:50.467Z,128.27
2022-11-03T08:02:30.223Z,128.97
2022-11-03T08:05:00.179Z,124.53
2022-11-03T08:07:29.424Z,129.13
2022-11-03T08:09:57.892Z,125.93
2022-11-03T08:12:26.372Z,125.10
2022-11-03T08:14:55.015Z,137.57
2022-11-03T08:17:23.461Z,117.27
2022-11-03T08:19:51.866Z,116.40
2022-11-03T08:22:23.194Z,114.67
2022-11-03T08:24:51.632Z,116.90
2022-11-03T08:27:20.675Z,122.63
2022-11-03T08:29:49.183Z,126.03
2022-11-03T08:32:17.690Z,139.40
2022-11-03T08:34:46.146Z,140.30
2022-11-03T08:37:14.590Z,237.20
2022-11-03T08:39:44.214Z,217.53
2022-11-03T08:42:12.578Z,210.43
2022-11-03T08:44:40.977Z,221.30
2022-11-03T08:47:09.406Z,206.30
2022-11-03T08:49:38.085Z,237.17
2022-11-03T08:52:06.704Z,242.90
2022-11-03T08:54:35.049Z,239.50
2022-11-03T08:57:04.862Z,238.60
2022-11-03T08:59:33.832Z,249.17
2022-11-03T09:02:02.369Z,236.27
2022-11-03T09:04:30.830Z,232.97
2022-11-03T09:06:59.318Z,271.50
2022-11-03T09:12:17.452Z,258.00
2022-11-03T09:14:45.784Z,286.77
2022-11-03T09:17:14.251Z,277.03
2022-11-03T09:19:42.598Z,278.67
2022-11-03T09:22:10.952Z,292.60
2022-11-03T09:24:39.226Z,268.07
2022-11-03T09:27:07.574Z,259.20
2022-11-03T09:30:06.570Z,263.80
2022-11-03T09:32:26.398Z,258.40
2022-11-03T09:34:54.817Z,251.57
2022-11-03T09:37:23.997Z,261.30
2022-11-03T09:39:52.381Z,256.20
2022-11-03T09:42:21.021Z,225.80
2022-11-03T09:44:51.978Z,228.07
2022-11-03T09:47:25.024Z,235.60
2022-11-03T09:49:53.651Z,240.33
2022-11-03T09:52:24.216Z,223.67
2022-11-03T09:54:55.671Z,211.53
2022-11-03T09:57:26.377Z,201.70
2022-11-03T09:59:56.767Z,197.57
2022-11-03T10:02:28.519Z,194.87
2022-11-03T10:05:00.186Z,180.60
2022-11-03T10:07:31.142Z,183.73
2022-11-03T10:10:01.194Z,178.10
2022-11-03T10:12:33.462Z,177.57
2022-11-03T10:15:03.234Z,185.63
2022-11-03T10:17:32.349Z,181.60
2022-11-03T10:20:01.895Z,183.57
2022-11-03T10:22:30.251Z,176.50
2022-11-03T10:25:35.943Z,179.03
2022-11-03T10:28:16.863Z,171.00
2022-11-03T10:31:10.752Z,163.33
2022-11-03T10:33:41.765Z,157.27
2022-11-03T10:36:25.372Z,171.70
2022-11-03T10:38:54.081Z,179.37
2022-11-03T10:41:23.980Z,162.17
2022-11-03T10:44:08.117Z,149.07
2022-11-03T10:46:50.777Z,158.53
2022-11-03T10:49:21.309Z,164.67
2022-11-03T10:51:52.219Z,145.17
2022-11-03T10:54:23.401Z,175.53
2022-11-03T10:56:52.494Z,151.40
2022-11-03T10:59:23.379Z,166.47
2022-11-03T11:01:53.331Z,160.50
2022-11-03T11:04:22.358Z,165.33
2022-11-03T11:06:51.384Z,150.27
2022-11-03T11:09:25.573Z,153.87
2022-11-03T11:12:02.429Z,159.67
2022-11-03T11:14:39.787Z,163.07
2022-11-03T11:17:45.319Z,149.23
2022-11-03T11:20:40.251Z,165.43
2022-11-03T11:23:49.033Z,156.87
2022-11-03T11:26:32.308Z,152.33
2022-11-03T11:29:44.004Z,148.17
2022-11-03T11:32:52.227Z,142.20
2022-11-03T11:35:59.441Z,140.47
2022-11-03T11:39:07.123Z,133.13
2022-11-03T11:42:14.617Z,148.37
2022-11-03T11:45:02.841Z,126.73
2022-11-03T11:47:46.304Z,123.10
2022-11-03T11:50:31.937Z,129.73
2022-11-03T11:53:04.154Z,125.23
2022-11-03T11:55:46.921Z,125.03
2022-11-03T11:58:31.803Z,134.20
2022-11-03T12:01:02.279Z,135.20
2022-11-03T12:03:34.932Z,128.60
2022-11-03T12:06:03.757Z,119.23
2022-11-03T12:08:32.837Z,117.77
2022-11-03T12:11:04.150Z,122.67
2022-11-03T12:13:48.461Z,135.57
2022-11-03T12:16:30.281Z,125.63
2022-11-03T12:18:59.038Z,130.63
2022-11-03T12:21:47.369Z,123.90
2022-11-03T12:24:49.141Z,130.37
2022-11-03T12:27:36.725Z,136.17
2022-11-03T12:30:12.648Z,125.13
2022-11-03T12:32:41.099Z,118.07
2022-11-03T12:35:11.235Z,124.00
2022-11-03T12:37:39.716Z,128.00
2022-11-03T12:40:09.214Z,120.87
2022-11-03T12:42:37.582Z,124.90
2022-11-03T12:45:08.863Z,122.70
2022-11-03T12:47:37.195Z,131.07
2022-11-03T12:50:06.095Z,123.40
2022-11-03T12:52:34.441Z,113.73
2022-11-03T12:55:02.918Z,125.33
2022-11-03T12:57:31.334Z,133.03
2022-11-03T12:59:59.682Z,117.83
2022-11-03T13:02:29.441Z,125.37
2022-11-03T13:04:57.865Z,122.33
2022-11-03T13:07:31.824Z,116.23
2022-11-03T13:10:03.134Z,114.57
2022-11-03T13:12:35.245Z,126.50
2022-11-03T13:15:05.837Z,123.37
2022-11-03T13:17:59.152Z,122.17
2022-11-03T13:20:24.643Z,125.30
2022-11-03T13:22:53.030Z,117.30
2022-11-03T13:25:24.355Z,129.73
2022-11-03T13:27:53.897Z,131.47
2022-11-03T13:30:22.602Z,112.07
2022-11-03T13:32:52.867Z,116.67
2022-11-03T13:35:21.614Z,115.90
2022-11-03T13:37:49.957Z,117.57
2022-11-03T13:40:50.447Z,115.40
2022-11-03T13:43:07.585Z,117.93
2022-11-03T13:45:36.224Z,117.00
2022-11-03T13:50:54.580Z,113.33
2022-11-03T13:56:17.216Z,116.90
2022-11-03T14:01:37.583Z,118.40
2022-11-03T14:06:56.012Z,124.37
2022-11-03T14:09:24.995Z,114.13
2022-11-03T14:12:10.526Z,115.83
2022-11-03T14:14:38.950Z,117.13
2022-11-03T14:17:07.359Z,127.67
2022-11-03T14:19:43.086Z,119.40
2022-11-03T14:22:14.519Z,118.17
2022-11-03T14:24:42.963Z,144.77
2022-11-03T14:27:11.406Z,114.47
2022-11-03T14:29:39.754Z,127.43
2022-11-03T14:32:08.152Z,127.13
2022-11-03T14:34:38.555Z,124.17
2022-11-03T14:37:08.910Z,126.27
2022-11-03T14:39:37.654Z,118.17
2022-11-03T14:42:05.364Z,121.10
2022-11-03T14:44:34.882Z,129.10
2022-11-03T14:47:05.123Z,125.73
2022-11-03T14:49:34.728Z,130.07
2022-11-03T14:52:07.367Z,122.53
2022-11-03T14:54:36.700Z,125.67
2022-11-03T14:57:05.999Z,128.87
2022-11-03T14:59:35.815Z,125.70
2022-11-03T15:02:05.106Z,117.23
2022-11-03T15:04:33.446Z,127.17
2022-11-03T15:07:01.911Z,135.83
2022-11-03T15:09:31.687Z,127.67
2022-11-03T15:12:00.018Z,124.20
2022-11-03T15:14:29.823Z,130.33
2022-11-03T15:16:58.250Z,140.83
2022-11-03T15:19:26.558Z,132.67
2022-11-03T15:21:54.855Z,145.07
2022-11-03T15:27:13.075Z,133.77
2022-11-03T15:29:41.455Z,125.93
2022-11-03T15:32:09.818Z,137.13
2022-11-03T15:34:38.403Z,136.97
2022-11-03T15:37:06.853Z,132.00
2022-11-03T15:39:35.278Z,125.37
2022-11-03T15:42:03.725Z,137.60
2022-11-03T15:44:33.353Z,131.83
2022-11-03T15:47:01.729Z,132.37
2022-11-03T15:49:30.054Z,138.57
2022-11-03T15:51:58.391Z,186.97
2022-11-03T15:54:26.913Z,210.40
2022-11-03T15:56:55.307Z,143.93
2022-11-03T15:59:23.647Z,156.37
2022-11-03T16:02:03.468Z,142.03
2022-11-03T16:04:42.003Z,134.73
2022-11-03T16:07:10.507Z,132.13
2022-11-03T16:09:39.011Z,145.37
2022-11-03T16:12:07.926Z,139.63
2022-11-03T16:14:36.390Z,140.70
2022-11-03T16:17:06.985Z,144.03
2022-11-03T16:19:35.349Z,131.50
2022-11-03T16:22:03.795Z,132.97
2022-11-03T16:24:35.203Z,137.10
2022-11-03T16:27:04.839Z,135.87
2022-11-03T16:29:33.394Z,128.87
2022-11-03T16:32:01.809Z,124.40
2022-11-03T16:34:31.599Z,139.33
2022-11-03T16:37:00.785Z,137.90
2022-11-03T16:39:30.052Z,124.70
2022-11-03T16:41:58.389Z,122.30
2022-11-03T16:44:27.628Z,142.23
2022-11-03T16:46:56.426Z,182.90
2022-11-03T16:49:24.780Z,204.40
2022-11-03T16:51:54.598Z,138.53
2022-11-03T16:54:22.957Z,133.00
2022-11-03T16:56:54.596Z,130.70
2022-11-03T16:59:25.611Z,126.13
2022-11-03T17:01:54.502Z,118.80
2022-11-03T17:04:22.985Z,132.13
2022-11-03T17:06:51.473Z,130.57
2022-11-03T17:09:21.451Z,138.57
2022-11-03T17:11:49.903Z,121.70
2022-11-03T17:14:18.301Z,127.63
2022-11-03T17:16:48.392Z,128.97
2022-11-03T17:19:16.983Z,136.33
2022-11-03T17:21:47.276Z,135.97
2022-11-03T17:24:15.827Z,129.33
2022-11-03T17:26:53.026Z,133.03
2022-11-03T17:29:24.857Z,130.00
2022-11-03T17:31:53.201Z,126.90
2022-11-03T17:34:25.140Z,144.73
2022-11-03T17:36:55.382Z,134.50
2022-11-03T17:39:29.319Z,123.13
2022-11-03T17:42:14.751Z,134.27
2022-11-03T17:44:43.406Z,124.13
2022-11-03T17:47:11.781Z,123.00
2022-11-03T17:49:40.642Z,122.03
2022-11-03T17:52:15.904Z,119.57
2022-11-03T17:54:44.798Z,118.10
2022-11-03T17:57:17.959Z,123.60
2022-11-03T17:59:50.953Z,117.67
2022-11-03T18:02:23.111Z,123.90
2022-11-03T18:04:54.284Z,129.03
2022-11-03T18:07:25.193Z,118.60
2022-11-03T18:09:54.211Z,122.00
2022-11-03T18:12:45.266Z,128.63
2022-11-03T18:15:17.666Z,130.50
2022-11-03T18:17:46.634Z,122.87
2022-11-03T18:20:17.379Z,118.13
2022-11-03T18:22:46.575Z,125.50
2022-11-03T18:25:16.132Z,122.73
2022-11-03T18:27:45.976Z,127.63
2022-11-03T18:30:16.874Z,124.43
2022-11-03T18:32:46.554Z,143.53
2022-11-03T18:35:18.578Z,133.77
2022-11-03T18:37:47.077Z,145.70
2022-11-03T18:40:16.565Z,126.70
2022-11-03T18:42:47.587Z,139.83
2022-11-03T18:45:17.859Z,126.70
2022-11-03T18:47:46.541Z,126.27
2022-11-03T18:50:16.144Z,137.67
2022-11-03T18:52:47.618Z,132.13
2022-11-03T18:55:17.738Z,132.47
2022-11-03T18:57:47.603Z,129.50
2022-11-03T19:00:19.859Z,139.03
2022-11-03T19:02:49.022Z,135.37
2022-11-03T19:05:18.315Z,131.57
2022-11-03T19:07:49.410Z,132.73
2022-11-03T19:10:21.908Z,127.10
2022-11-03T19:12:52.133Z,125.23
2022-11-03T19:15:23.021Z,127.23
2022-11-03T19:17:55.596Z,124.17
2022-11-03T19:20:25.550Z,121.13
2022-11-03T19:22:53.959Z,128.33
2022-11-03T19:25:22.371Z,115.20
2022-11-03T19:27:52.116Z,112.73
2022-11-03T19:30:20.937Z,103.40
2022-11-03T19:32:52.302Z,103.00
2022-11-03T19:35:23.434Z,121.20
2022-11-03T19:37:59.725Z,111.90
2022-11-03T19:40:28.161Z,118.07
2022-11-03T19:42:57.724Z,103.83
2022-11-03T19:45:28.470Z,100.23
2022-11-03T19:50:47.764Z,94.43
2022-11-03T19:53:22.192Z,82.97
2022-11-03T19:55:50.977Z,72.67
2022-11-03T19:58:22.337Z,63.93
2022-11-03T20:00:51.740Z,70.47
2022-11-03T20:03:22.140Z,65.07
2022-11-03T20:05:53.443Z,57.57
2022-11-03T20:08:25.067Z,46.43
2022-11-03T20:10:54.006Z,57.27
2022-11-03T20:13:26.288Z,59.40
2022-11-03T20:16:00.725Z,54.80
2022-11-03T20:18:29.935Z,58.53
2022-11-03T20:20:58.959Z,55.57
2022-11-03T20:23:30.240Z,56.23
2022-11-03T20:25:58.972Z,56.13
2022-11-03T20:28:31.072Z,53.73
2022-11-03T20:31:01.306Z,52.37
2022-11-03T20:33:30.994Z,55.50
2022-11-03T20:36:00.219Z,58.93
2022-11-03T20:38:30.003Z,62.00
2022-11-03T20:41:00.014Z,60.00
2022-11-03T20:43:33.128Z,56.27
2022-11-03T20:46:02.202Z,62.73
2022-11-03T20:48:31.254Z,57.63
2022-11-03T20:50:59.695Z,69.67
2022-11-03T20:53:28.214Z,63.10
2022-11-03T20:55:56.592Z,54.10
2022-11-03T20:58:24.976Z,64.10
2022-11-03T21:00:55.031Z,82.13
2022-11-03T21:03:57.650Z,86.70
2022-11-03T21:06:18.763Z,97.37
2022-11-03T21:08:48.311Z,113.67
2022-11-03T21:11:24.305Z,105.40
2022-11-03T21:13:53.195Z,127.27
2022-11-03T21:16:40.645Z,103.67
2022-11-03T21:19:37.414Z,97.50
2022-11-03T21:25:03.634Z,105.50
2022-11-03T21:27:32.056Z,108.87
2022-11-03T21:30:00.729Z,98.73
2022-11-03T21:32:30.430Z,94.37
2022-11-03T21:34:58.855Z,84.57
2022-11-03T21:37:27.258Z,92.30
2022-11-03T21:39:55.661Z,95.37
2022-11-03T21:42:41.748Z,83.03
2022-11-03T21:45:10.878Z,73.60
2022-11-03T21:48:00.695Z,58.00
2022-11-03T21:50:28.048Z,48.90
2022-11-03T21:52:57.569Z,41.50
2022-11-03T21:55:26.292Z,38.17
2022-11-03T21:57:54.581Z,32.80
2022-11-03T22:00:23.192Z,28.53
2022-11-03T22:02:53.083Z,23.77
2022-11-03T22:05:21.585Z,24.70
2022-11-03T22:07:50.037Z,30.27
2022-11-03T22:10:18.445Z,19.10
2022-11-03T22:12:47.093Z,16.00
2022-11-03T22:15:32.314Z,26.50
2022-11-03T22:18:03.464Z,35.70
2022-11-03T22:20:49.214Z,30.13
2022-11-03T22:23:35.207Z,36.87
2022-11-03T22:26:20.837Z,62.27
2022-11-03T22:29:09.574Z,93.17
2022-11-03T22:31:43.146Z,93.93
2022-11-03T22:34:29.998Z,100.93
2022-11-03T22:36:58.379Z,101.10
2022-11-03T22:39:43.858Z,101.07
2022-11-03T22:42:30.770Z,96.50
2022-11-03T22:45:16.705Z,104.80
2022-11-03T22:47:45.217Z,106.80
2022-11-03T22:50:15.098Z,110.23
2022-11-03T22:52:43.568Z,101.80
2022-11-03T22:55:10.892Z,100.67
2022-11-03T22:57:39.303Z,122.97
2022-11-03T23:00:08.627Z,115.10
2022-11-03T23:02:37.013Z,110.87
2022-11-03T23:05:06.101Z,108.43
2022-11-03T23:07:41.248Z,113.60
2022-11-03T23:10:10.762Z,114.93
2022-11-03T23:12:39.099Z,114.63
2022-11-03T23:15:26.076Z,107.13
2022-11-03T23:18:11.938Z,117.20
2022-11-03T23:20:57.746Z,110.73
2022-11-03T23:23:44.969Z,119.90
2022-11-03T23:26:13.546Z,125.93
2022-11-03T23:28:41.992Z,109.37
2022-11-03T23:31:10.601Z,117.27
2022-11-03T23:33:39.381Z,118.67
2022-11-03T23:36:10.068Z,113.60
2022-11-03T23:38:40.935Z,115.90
2022-11-03T23:41:10.483Z,119.43
2022-11-03T23:43:39.428Z,116.90
2022-11-03T23:46:25.413Z,116.07
2022-11-03T23:48:54.527Z,114.80
2022-11-03T23:51:24.415Z,129.17
2022-11-03T23:53:55.078Z,115.27
2022-11-03T23:56:43.235Z,116.73
2022-11-03T23:59:13.156Z,109.50
